Time;durP1;ratioP1;P1;durP2;ratioP2;P2;SDS_P1;SDS_P2;PMS_P1;PMS_P2;Temp;Humidity;BMP_temperature;BMP_pressure;BME280_temperature;BME280_humidity;BME280_pressure;Samples;Min_cycle;Max_cycle;Signal;HPM_P1;HPM_P2
2022/09/29 00:01:36;;;;;;;3.90;1.10;;;;;;;13.12;60.40;97496.66;106042;1277;98864;-64
2022/09/29 00:04:08;;;;;;;2.00;1.10;;;;;;;13.13;60.41;97497.06;106010;1276;99399;-65
2022/09/29 00:06:36;;;;;;;2.70;1.10;;;;;;;13.14;60.40;97500.31;105971;1276;113128;-64
2022/09/29 00:09:08;;;;;;;3.90;1.10;;;;;;;13.15;60.51;97500.77;105994;1276;99246;-65
2022/09/29 00:11:35;;;;;;;5.30;1.00;;;;;;;13.15;60.45;97502.77;105963;1276;108374;-62
2022/09/29 00:14:06;;;;;;;2.90;0.90;;;;;;;13.15;60.42;97500.67;105972;1276;99246;-64
2022/09/29 00:16:34;;;;;;;1.90;1.20;;;;;;;13.13;60.31;97500.30;105931;1276;99265;-65
2022/09/29 00:19:05;;;;;;;2.90;1.20;;;;;;;13.09;60.33;97500.14;105910;1276;113367;-63
2022/09/29 00:21:35;;;;;;;1.80;1.20;;;;;;;13.07;60.42;97499.80;105988;1276;96671;-63
2022/09/29 00:24:03;;;;;;;2.70;1.10;;;;;;;13.07;60.38;97497.66;105957;1276;108377;-64
2022/09/29 00:26:31;;;;;;;3.60;1.30;;;;;;;13.08;60.54;97499.23;105974;1276;99208;-64
2022/09/29 00:29:00;;;;;;;4.90;1.20;;;;;;;13.07;60.48;97499.30;105842;1277;99258;-64
2022/09/29 00:31:33;;;;;;;2.30;1.10;;;;;;;13.06;60.51;97498.00;105972;1276;113265;-63
2022/09/29 00:34:01;;;;;;;1.50;0.70;;;;;;;13.06;60.56;97502.30;106002;1276;99246;-64
2022/09/29 00:36:31;;;;;;;4.50;1.20;;;;;;;13.06;60.58;97505.64;105875;1277;108728;-64
2022/09/29 00:39:05;;;;;;;4.40;1.00;;;;;;;13.07;60.59;97509.84;105986;1276;99296;-65
2022/09/29 00:41:38;;;;;;;1.80;1.20;;;;;;;13.08;60.56;97513.58;106009;1276;99307;-63
2022/09/29 00:44:26;;;;;;;;;;;;;;;13.10;60.62;97510.21;105966;1276;112788;-63
2022/09/29 00:47:03;;;;;;;4.10;1.40;;;;;;;13.08;60.75;97512.71;105951;1276;99239;-65
2022/09/29 00:49:38;;;;;;;5.60;1.50;;;;;;;13.07;60.59;97511.41;105952;1277;107779;-63
2022/09/29 00:52:16;;;;;;;5.00;1.40;;;;;;;13.06;60.65;97519.31;106005;1276;96625;-65
2022/09/29 00:55:05;;;;;;;2.90;1.60;;;;;;;13.06;60.82;97517.21;105999;1276;99278;-68
2022/09/29 00:57:45;;;;;;;2.30;1.40;;;;;;;13.06;60.77;97520.24;105977;1276;113343;-62
2022/09/29 01:00:16;;;;;;;5.40;1.60;;;;;;;13.03;60.76;97518.79;106009;1277;97632;-65
2022/09/29 01:02:56;;;;;;;3.50;1.50;;;;;;;13.02;60.90;97516.24;105938;1276;107942;-64
2022/09/29 01:05:33;;;;;;;2.60;1.60;;;;;;;13.00;60.72;97521.23;105911;1276;99252;-64
2022/09/29 01:08:30;;;;;;;4.80;1.40;;;;;;;12.95;60.97;97525.15;105912;1276;99235;-65
2022/09/29 01:11:01;;;;;;;3.40;1.70;;;;;;;12.93;61.15;97522.09;106323;1277;113329;-64
2022/09/29 01:13:34;;;;;;;2.90;1.30;;;;;;;12.92;61.10;97522.05;105855;1276;99201;-64
2022/09/29 01:16:02;;;;;;;2.30;1.60;;;;;;;12.91;61.07;97513.67;105913;1276;107541;-61
2022/09/29 01:18:41;;;;;;;4.00;1.50;;;;;;;12.88;61.14;97512.95;106011;1276;99398;-63
2022/09/29 01:21:30;;;;;;;2.70;1.80;;;;;;;12.80;61.08;97509.52;106073;1276;96650;-63
2022/09/29 01:24:26;;;;;;;2.70;1.60;;;;;;;12.68;61.16;97507.13;106015;1276;113452;-63
2022/09/29 01:27:19;;;;;;;2.80;1.70;;;;;;;12.60;61.32;97511.61;106017;1276;99304;-63
2022/09/29 01:29:59;;;;;;;3.60;1.90;;;;;;;12.57;61.65;97519.77;105997;1276;108917;-63
2022/09/29 01:33:03;;;;;;;1.90;1.50;;;;;;;12.58;61.78;97524.08;105973;1276;99302;-64
2022/09/29 01:35:47;;;;;;;2.00;1.50;;;;;;;12.60;61.81;97530.79;106030;1276;99242;-64
2022/09/29 01:38:56;;;;;;;3.30;1.60;;;;;;;12.61;61.91;97526.79;105857;1276;113362;-64
2022/09/29 01:41:52;;;;;;;5.30;2.00;;;;;;;12.62;62.04;97532.36;105939;1276;99286;-63
2022/09/29 01:44:22;;;;;;;2.50;1.60;;;;;;;12.62;62.02;97539.13;105993;1276;108348;-65
2022/09/29 01:47:09;;;;;;;5.00;1.40;;;;;;;12.62;62.27;97545.70;105930;1276;97352;-63
2022/09/29 01:49:44;;;;;;;2.10;1.30;;;;;;;12.62;62.19;97550.33;105968;1276;99355;-63
2022/09/29 01:52:19;;;;;;;2.10;1.60;;;;;;;12.61;62.21;97546.84;106026;1276;112750;-62
2022/09/29 01:55:01;;;;;;;1.90;1.50;;;;;;;12.61;62.21;97549.33;106058;1276;99906;-61
2022/09/29 01:57:44;;;;;;;2.20;1.50;;;;;;;12.61;62.40;97546.36;105967;1276;107819;-62
2022/09/29 02:00:16;;;;;;;3.40;1.70;;;;;;;12.61;62.42;97545.83;105951;1276;99421;-64
2022/09/29 02:03:16;;;;;;;5.80;1.90;;;;;;;12.61;62.50;97547.27;106025;1276;99302;-65
2022/09/29 02:05:49;;;;;;;3.00;1.40;;;;;;;12.56;62.57;97549.52;105929;1277;113393;-65
2022/09/29 02:08:53;;;;;;;4.20;1.60;;;;;;;12.54;62.67;97553.30;105972;1276;99231;-62
2022/09/29 02:11:23;;;;;;;2.70;1.70;;;;;;;12.54;62.74;97551.06;105800;1276;108162;-62
2022/09/29 02:14:18;;;;;;;5.10;2.20;;;;;;;12.52;62.71;97554.41;106016;1277;99324;-64
2022/09/29 02:17:04;;;;;;;2.40;1.60;;;;;;;12.47;62.76;97553.34;106027;1276;100494;-64
2022/09/29 02:19:39;;;;;;;5.70;1.70;;;;;;;12.42;62.82;97559.23;106033;1276;113880;-65
2022/09/29 02:22:10;;;;;;;5.70;1.80;;;;;;;12.40;62.96;97559.39;106086;1276;99356;-62
2022/09/29 02:24:40;;;;;;;4.40;1.70;;;;;;;12.40;62.96;97561.58;106011;1277;107733;-64
2022/09/29 02:27:11;;;;;;;6.50;1.80;;;;;;;12.39;62.96;97567.17;106026;1276;97807;-65
2022/09/29 02:29:43;;;;;;;5.70;2.10;;;;;;;12.37;63.13;97565.00;106025;1276;97794;-63
2022/09/29 02:32:14;;;;;;;2.30;1.80;;;;;;;12.34;63.07;97564.38;106017;1276;112781;-65
2022/09/29 02:34:49;;;;;;;3.60;2.30;;;;;;;12.33;63.21;97565.63;105976;1277;99332;-65
2022/09/29 02:37:45;;;;;;;4.60;1.90;;;;;;;12.32;63.23;97562.34;106042;1277;107734;-65
2022/09/29 02:40:38;;;;;;;4.30;1.70;;;;;;;12.29;63.38;97559.23;105994;1277;99335;-65
2022/09/29 02:43:57;;;;;;;6.40;2.00;;;;;;;12.26;63.52;97557.96;106023;1277;99227;-64
2022/09/29 02:46:50;;;;;;;5.80;2.30;;;;;;;12.24;63.36;97561.54;105945;1277;113104;-66
2022/09/29 02:49:49;;;;;;;6.00;2.10;;;;;;;12.22;63.61;97563.20;105994;1275;99326;-65
2022/09/29 02:52:25;;;;;;;4.70;2.60;;;;;;;12.20;63.60;97556.27;106029;1277;107662;-65
2022/09/29 02:55:09;;;;;;;3.70;2.00;;;;;;;12.18;63.70;97559.65;106036;1277;99241;-64
2022/09/29 02:58:12;;;;;;;2.70;1.60;;;;;;;12.18;63.80;97560.19;106045;1278;99249;-65
2022/09/29 03:00:46;;;;;;;8.30;2.60;;;;;;;12.17;63.91;97566.73;105976;1277;112086;-64
2022/09/29 03:03:14;;;;;;;3.20;2.00;;;;;;;12.16;63.83;97567.02;106080;1278;99240;-68
2022/09/29 03:05:47;;;;;;;4.20;2.10;;;;;;;12.17;63.98;97569.77;105960;1278;108354;-66
2022/09/29 03:08:15;;;;;;;3.80;2.20;;;;;;;12.17;64.01;97572.91;106012;1276;99305;-63
2022/09/29 03:10:43;;;;;;;7.30;2.30;;;;;;;12.17;64.09;97575.70;106001;1278;99445;-66
2022/09/29 03:13:11;;;;;;;5.20;2.00;;;;;;;12.18;64.13;97575.81;105961;1278;113330;-62
2022/09/29 03:15:39;;;;;;;6.60;2.30;;;;;;;12.17;64.19;97576.27;106018;1277;99263;-64
2022/09/29 03:18:07;;;;;;;3.90;2.30;;;;;;;12.16;64.19;97577.83;105935;1278;108338;-64
2022/09/29 03:20:38;;;;;;;7.00;2.50;;;;;;;12.14;64.21;97578.91;105995;1277;96709;-64
2022/09/29 03:23:06;;;;;;;6.30;2.60;;;;;;;12.13;64.29;97580.98;106038;1277;96656;-64
2022/09/29 03:25:36;;;;;;;7.10;2.80;;;;;;;12.11;64.34;97582.40;106000;1277;112344;-66
2022/09/29 03:28:04;;;;;;;5.30;2.50;;;;;;;12.12;64.40;97584.14;106040;1277;99293;-66
2022/09/29 03:30:35;;;;;;;4.40;2.40;;;;;;;12.11;64.51;97584.73;105940;1278;108825;-67
2022/09/29 03:33:04;;;;;;;5.60;2.30;;;;;;;12.11;64.41;97591.15;105978;1277;99883;-65
2022/09/29 03:35:34;;;;;;;7.00;2.30;;;;;;;12.09;64.64;97588.52;106005;1277;99208;-66
2022/09/29 03:38:05;;;;;;;7.70;2.80;;;;;;;12.06;64.59;97591.27;106009;1278;113293;-64
2022/09/29 03:40:33;;;;;;;4.50;2.30;;;;;;;12.04;64.70;97592.55;105967;1277;99422;-68
2022/09/29 03:43:02;;;;;;;3.30;2.40;;;;;;;12.03;64.79;97586.04;105968;1278;108409;-67
2022/09/29 03:45:31;;;;;;;5.50;2.60;;;;;;;12.03;64.75;97588.88;105989;1277;96619;-65
2022/09/29 03:48:01;;;;;;;6.30;2.60;;;;;;;12.03;64.84;97585.85;106015;1278;99220;-65
2022/09/29 03:50:30;;;;;;;3.70;2.30;;;;;;;12.03;64.88;97587.63;105970;1277;113403;-65
2022/09/29 03:52:58;;;;;;;4.40;2.40;;;;;;;12.02;64.93;97587.74;105988;1276;99211;-65
2022/09/29 03:55:26;;;;;;;3.40;2.50;;;;;;;12.00;64.91;97591.34;105835;1277;134021;-65
2022/09/29 03:57:54;;;;;;;5.20;2.70;;;;;;;11.99;64.94;97593.73;105953;1277;99343;-64
2022/09/29 04:00:24;;;;;;;4.70;2.40;;;;;;;11.98;64.96;97591.77;105929;1276;99371;-65
2022/09/29 04:02:58;;;;;;;5.80;2.80;;;;;;;11.98;65.10;97595.63;105935;1277;113119;-64
2022/09/29 04:05:28;;;;;;;5.50;2.70;;;;;;;11.98;65.12;97594.05;105898;1277;99259;-65
2022/09/29 04:07:56;;;;;;;3.20;2.60;;;;;;;11.97;65.18;97597.11;105923;1277;108394;-65
2022/09/29 04:10:24;;;;;;;5.50;3.00;;;;;;;11.95;65.11;97596.23;105968;1277;99214;-66
2022/09/29 04:12:52;;;;;;;7.30;2.80;;;;;;;11.95;65.24;97602.73;105979;1277;99130;-65
2022/09/29 04:15:21;;;;;;;8.80;2.90;;;;;;;11.93;65.27;97594.52;106018;1276;113491;-65
2022/09/29 04:17:49;;;;;;;3.80;2.20;;;;;;;11.91;65.29;97596.64;106009;1277;99230;-69
2022/09/29 04:20:16;;;;;;;4.40;2.60;;;;;;;11.90;65.27;97594.40;106013;1277;108373;-64
2022/09/29 04:22:47;;;;;;;5.50;3.00;;;;;;;11.88;65.20;97591.09;106016;1277;99210;-66
2022/09/29 04:25:19;;;;;;;6.00;2.80;;;;;;;11.83;65.27;97585.73;105952;1277;99126;-62
2022/09/29 04:27:53;;;;;;;4.70;2.90;;;;;;;11.82;65.45;97584.49;105950;1277;113585;-65
2022/09/29 04:30:23;;;;;;;5.20;2.90;;;;;;;11.81;65.50;97591.34;105944;1276;96750;-64
2022/09/29 04:32:53;;;;;;;7.60;3.20;;;;;;;11.79;65.42;97588.16;105943;1277;108290;-66
2022/09/29 04:35:22;;;;;;;5.30;3.00;;;;;;;11.76;65.38;97590.38;105908;1277;96628;-65
2022/09/29 04:37:58;;;;;;;5.70;3.00;;;;;;;11.73;65.43;97594.36;105929;1277;99311;-66
2022/09/29 04:40:30;;;;;;;5.40;2.90;;;;;;;11.71;65.66;97590.52;105976;1277;113972;-65
2022/09/29 04:43:00;;;;;;;7.10;3.50;;;;;;;11.69;65.70;97588.04;105984;1277;97732;-66
2022/09/29 04:45:30;;;;;;;8.80;3.10;;;;;;;11.67;65.53;97589.17;105962;1277;108328;-66
2022/09/29 04:48:00;;;;;;;7.70;3.30;;;;;;;11.61;65.68;97586.34;105907;1277;100374;-64
2022/09/29 04:50:30;;;;;;;7.40;3.00;;;;;;;11.55;65.56;97586.92;105931;1277;99245;-65
2022/09/29 04:53:00;;;;;;;4.90;3.10;;;;;;;11.50;65.93;97589.61;105946;1277;113388;-64
2022/09/29 04:55:30;;;;;;;7.40;3.50;;;;;;;11.51;66.14;97590.71;105975;1277;99275;-64
2022/09/29 04:58:00;;;;;;;8.50;2.70;;;;;;;11.53;66.28;97589.78;105953;1277;108339;-64
2022/09/29 05:00:31;;;;;;;7.50;3.30;;;;;;;11.57;66.28;97591.74;105943;1276;99247;-62
2022/09/29 05:03:00;;;;;;;4.70;2.80;;;;;;;11.60;66.20;97592.36;105919;1276;99361;-64
2022/09/29 05:05:29;;;;;;;10.00;3.30;;;;;;;11.61;66.16;97591.38;105929;1276;113471;-64
2022/09/29 05:08:03;;;;;;;7.30;3.40;;;;;;;11.59;66.30;97592.21;105904;1276;100205;-65
2022/09/29 05:10:34;;;;;;;6.30;3.10;;;;;;;11.58;66.41;97593.95;105938;1277;107795;-67
2022/09/29 05:13:01;;;;;;;9.10;3.30;;;;;;;11.58;66.43;97598.21;105986;1277;99224;-67
2022/09/29 05:15:30;;;;;;;6.70;3.20;;;;;;;11.61;66.63;97603.92;105973;1277;99930;-65
2022/09/29 05:18:04;;;;;;;7.10;3.50;;;;;;;11.64;66.49;97609.66;105977;1276;113366;-67
2022/09/29 05:20:35;;;;;;;5.90;3.10;;;;;;;11.64;66.68;97616.47;106037;1277;100121;-64
2022/09/29 05:23:11;;;;;;;6.70;3.20;;;;;;;11.65;66.79;97619.15;106000;1277;107866;-65
2022/09/29 05:25:44;;;;;;;6.60;3.40;;;;;;;11.66;66.80;97615.54;105941;1277;99238;-66
2022/09/29 05:28:15;;;;;;;6.00;3.40;;;;;;;11.70;66.83;97623.99;106040;1276;99221;-64
2022/09/29 05:30:43;;;;;;;8.80;3.20;;;;;;;11.71;66.90;97626.18;106063;1277;112620;-62
2022/09/29 05:33:10;;;;;;;6.50;3.30;;;;;;;11.73;66.87;97632.60;106008;1276;99365;-64
2022/09/29 05:35:38;;;;;;;8.00;3.40;;;;;;;11.73;67.10;97639.46;105947;1277;108403;-66
2022/09/29 05:38:07;;;;;;;12.30;4.60;;;;;;;11.75;66.94;97645.38;105985;1276;99217;-63
2022/09/29 05:40:37;;;;;;;8.30;3.60;;;;;;;11.75;67.07;97642.88;105925;1276;99243;-64
2022/09/29 05:43:08;;;;;;;7.60;3.70;;;;;;;11.76;67.19;97644.32;105949;1276;112550;-65
2022/09/29 05:45:36;;;;;;;8.30;4.00;;;;;;;11.77;67.12;97640.88;105982;1276;99321;-64
2022/09/29 05:48:09;;;;;;;8.20;3.70;;;;;;;11.78;67.29;97640.61;105965;1276;108250;-61
2022/09/29 05:50:42;;;;;;;6.30;3.30;;;;;;;11.79;67.17;97641.59;105991;1276;99225;-61
2022/09/29 05:53:10;;;;;;;7.60;3.30;;;;;;;11.81;67.30;97647.48;106021;1276;99297;-65
2022/09/29 05:55:41;;;;;;;9.30;4.10;;;;;;;11.82;67.23;97651.43;106004;1276;113565;-65
2022/09/29 05:58:08;;;;;;;7.60;3.40;;;;;;;11.81;67.38;97655.38;105983;1276;99241;-65
2022/09/29 06:00:37;;;;;;;6.80;3.10;;;;;;;11.83;67.45;97651.89;105971;1276;108187;-65
2022/09/29 06:03:08;;;;;;;5.70;3.40;;;;;;;11.85;67.54;97654.11;106010;1276;99254;-65
2022/09/29 06:05:41;;;;;;;9.00;4.00;;;;;;;11.88;67.59;97655.05;106027;1276;99134;-65
2022/09/29 06:08:09;;;;;;;7.20;3.80;;;;;;;11.91;67.61;97652.66;106058;1276;112714;-64
2022/09/29 06:10:42;;;;;;;6.50;3.30;;;;;;;11.93;67.60;97657.41;106015;1276;99365;-64
2022/09/29 06:13:10;;;;;;;8.30;3.70;;;;;;;11.95;67.57;97654.91;105967;1276;108410;-64
2022/09/29 06:15:41;;;;;;;8.20;3.50;;;;;;;11.97;67.71;97653.48;105974;1277;99353;-64
2022/09/29 06:18:11;;;;;;;10.50;4.00;;;;;;;12.00;67.74;97655.33;106011;1277;99263;-65
2022/09/29 06:20:39;;;;;;;6.80;3.80;;;;;;;12.02;67.66;97658.30;106006;1276;113336;-64
2022/09/29 06:23:07;;;;;;;10.50;4.00;;;;;;;12.04;67.82;97655.05;105923;1277;99181;-64
2022/09/29 06:25:36;;;;;;;12.10;4.30;;;;;;;12.07;67.83;97658.90;105958;1276;108413;-62
2022/09/29 06:28:06;;;;;;;7.20;3.80;;;;;;;12.09;67.78;97661.88;105951;1277;99396;-64
2022/09/29 06:30:34;;;;;;;6.40;3.50;;;;;;;12.10;68.02;97660.34;105987;1277;99205;-64
2022/09/29 06:33:06;;;;;;;11.50;4.40;;;;;;;12.12;68.04;97659.87;106029;1276;113340;-63
2022/09/29 06:38:23;;;;;;;10.20;4.50;;;;;;;12.14;68.15;97656.89;106005;1277;107226;-66
2022/09/29 06:40:56;;;;;;;9.90;4.30;;;;;;;12.15;68.12;97655.02;105933;1277;99402;-64
2022/09/29 06:43:27;;;;;;;8.70;4.50;;;;;;;12.15;68.10;97657.16;106029;1276;99918;-62
2022/09/29 06:45:56;;;;;;;11.50;4.80;;;;;;;12.16;68.20;97658.70;105948;1277;113420;-62
2022/09/29 06:48:28;;;;;;;11.30;4.90;;;;;;;12.17;68.25;97658.41;105948;1276;99100;-64
2022/09/29 06:50:56;;;;;;;10.80;4.80;;;;;;;12.19;68.18;97660.35;105794;1278;108322;-65
2022/09/29 06:53:41;;;;;;;12.10;4.90;;;;;;;12.20;68.38;97666.96;105918;1276;96607;-65
2022/09/29 06:56:09;;;;;;;14.10;5.80;;;;;;;12.22;68.38;97672.33;106000;1276;98825;-65
2022/09/29 06:58:43;;;;;;;13.50;5.60;;;;;;;12.24;68.38;97676.60;106064;1276;112471;-66
2022/09/29 07:01:13;;;;;;;11.90;5.00;;;;;;;12.23;68.36;97678.59;105989;1276;96738;-65
2022/09/29 07:03:42;;;;;;;8.10;4.70;;;;;;;12.22;68.35;97684.36;105991;1276;108603;-65
2022/09/29 07:06:15;;;;;;;10.40;4.70;;;;;;;12.23;68.48;97685.23;106007;1276;96641;-66
2022/09/29 07:08:55;;;;;;;9.90;4.70;;;;;;;12.21;68.32;97684.83;106026;1276;99200;-64
2022/09/29 07:11:26;;;;;;;13.80;5.00;;;;;;;12.20;68.36;97685.29;106031;1276;112673;-65
2022/09/29 07:13:56;;;;;;;12.10;4.90;;;;;;;12.18;68.33;97685.13;105994;1276;99413;-65
2022/09/29 07:16:26;;;;;;;8.60;4.30;;;;;;;12.16;68.47;97686.21;105965;1276;108769;-65
2022/09/29 07:18:55;;;;;;;10.30;4.20;;;;;;;12.16;68.48;97687.69;105909;1277;99288;-65
2022/09/29 07:21:24;;;;;;;10.70;4.60;;;;;;;12.15;68.52;97689.14;106004;1277;97934;-66
2022/09/29 07:23:54;;;;;;;11.80;4.50;;;;;;;12.16;68.55;97686.98;105988;1276;113471;-65
2022/09/29 07:26:28;;;;;;;11.30;4.50;;;;;;;12.15;68.57;97692.31;106015;1276;99131;-65
2022/09/29 07:28:59;;;;;;;10.70;4.90;;;;;;;12.15;68.69;97698.57;105978;1276;108432;-66
2022/09/29 07:31:28;;;;;;;17.60;5.60;;;;;;;12.14;68.57;97694.60;105980;1276;99307;-66
2022/09/29 07:34:06;;;;;;;16.20;5.70;;;;;;;12.14;68.79;97692.70;105929;1276;99310;-65
2022/09/29 07:36:37;;;;;;;10.60;4.90;;;;;;;12.14;68.75;97697.42;105929;1276;113547;-67
2022/09/29 07:39:09;;;;;;;16.30;6.00;;;;;;;12.14;68.75;97695.13;105921;1276;99076;-64
2022/09/29 07:41:39;;;;;;;13.90;5.40;;;;;;;12.11;68.77;97698.80;105980;1276;109243;-66
2022/09/29 07:44:07;;;;;;;11.20;5.00;;;;;;;12.09;68.67;97699.91;105933;1276;99234;-65
2022/09/29 07:46:38;;;;;;;15.40;5.70;;;;;;;12.02;68.61;97700.94;105936;1276;99655;-64
2022/09/29 07:49:07;;;;;;;17.10;5.40;;;;;;;11.99;68.80;97706.05;106026;1276;113433;-66
2022/09/29 07:51:38;;;;;;;12.00;4.80;;;;;;;11.96;68.71;97707.56;105972;1276;98207;-66
2022/09/29 07:54:06;;;;;;;17.10;5.00;;;;;;;11.96;68.88;97706.71;105909;1276;108041;-66
2022/09/29 07:56:37;;;;;;;9.80;4.90;;;;;;;11.95;68.81;97708.23;105963;1276;99327;-66
2022/09/29 07:59:10;;;;;;;12.30;4.70;;;;;;;11.95;68.88;97709.48;105995;1276;99195;-67
2022/09/29 08:01:38;;;;;;;7.80;3.90;;;;;;;11.96;68.92;97715.91;106011;1276;113245;-66
2022/09/29 08:04:07;;;;;;;9.70;4.10;;;;;;;11.93;68.78;97719.39;105992;1276;97073;-66
2022/09/29 08:06:36;;;;;;;10.50;4.40;;;;;;;11.90;68.91;97728.04;105987;1276;108466;-65
2022/09/29 08:09:07;;;;;;;19.00;4.20;;;;;;;11.89;68.83;97730.94;105932;1276;99874;-66
2022/09/29 08:11:43;;;;;;;14.60;4.80;;;;;;;11.85;68.88;97733.33;105986;1276;96991;-66
2022/09/29 08:14:11;;;;;;;10.60;4.50;;;;;;;11.83;69.04;97736.69;105945;1276;114199;-66
2022/09/29 08:16:42;;;;;;;11.00;4.20;;;;;;;11.82;69.06;97742.73;106001;1276;99205;-66
2022/09/29 08:19:12;;;;;;;11.40;4.40;;;;;;;11.76;68.92;97747.70;105825;1276;110806;-66
2022/09/29 08:21:48;;;;;;;5.80;3.30;;;;;;;11.72;68.81;97744.34;105868;1276;96644;-66
2022/09/29 08:24:22;;;;;;;8.90;3.60;;;;;;;11.67;68.86;97746.45;105993;1276;96535;-64
2022/09/29 08:26:51;;;;;;;;;;;;;;;11.60;68.92;97749.56;106040;1276;114445;-68
2022/09/29 08:29:22;;;;;;;11.20;3.60;;;;;;;11.54;69.07;97749.83;105868;1276;99320;-66
2022/09/29 08:31:52;;;;;;;7.30;3.40;;;;;;;11.52;68.98;97749.48;106001;1276;108408;-66
2022/09/29 08:34:25;;;;;;;14.00;4.00;;;;;;;11.52;69.12;97754.19;105945;1277;99333;-66
2022/09/29 08:36:54;;;;;;;13.80;4.20;;;;;;;11.51;69.24;97753.38;105964;1277;99304;-67
2022/09/29 08:39:26;;;;;;;12.00;2.60;;;;;;;11.49;69.08;97756.55;105969;1276;113373;-66
2022/09/29 08:42:33;;;;;;;17.10;4.60;;;;;;;11.45;69.16;97759.77;105977;1274;97701;-65
2022/09/29 08:45:32;;;;;;;9.70;3.30;;;;;;;11.41;69.38;97766.75;105844;1277;108251;-66
2022/09/29 08:48:19;;;;;;;18.50;3.70;;;;;;;11.39;69.40;97769.06;105935;1277;99333;-67
2022/09/29 08:51:26;;;;;;;11.00;4.30;;;;;;;11.35;69.19;97768.19;106002;1277;99252;-67
2022/09/29 08:54:23;;;;;;;8.50;3.40;;;;;;;11.31;69.24;97772.86;105974;1276;113494;-67
2022/09/29 08:57:19;;;;;;;9.70;3.70;;;;;;;11.23;69.16;97772.16;106021;1276;99105;-64
2022/09/29 08:59:58;;;;;;;7.90;3.00;;;;;;;11.14;69.29;97775.30;105995;1276;107717;-62
2022/09/29 09:02:33;;;;;;;7.40;3.30;;;;;;;11.11;69.15;97776.48;105940;1276;99343;-66
2022/09/29 09:05:12;;;;;;;10.80;3.60;;;;;;;11.07;69.34;97777.82;105928;1276;99324;-66
2022/09/29 09:07:51;;;;;;;7.90;3.50;;;;;;;11.06;69.36;97771.71;105916;1276;113357;-66
2022/09/29 09:10:39;;;;;;;8.30;3.90;;;;;;;11.05;69.50;97776.86;105938;1276;99259;-66
2022/09/29 09:13:27;;;;;;;12.00;4.30;;;;;;;11.07;69.52;97778.85;105931;1276;107728;-66
2022/09/29 09:16:27;;;;;;;9.10;3.80;;;;;;;11.08;69.52;97776.30;105969;1276;99303;-67
2022/09/29 09:19:24;;;;;;;8.10;4.10;;;;;;;11.08;69.67;97783.33;105862;1276;96568;-67
2022/09/29 09:22:17;;;;;;;11.30;4.50;;;;;;;11.08;69.69;97782.63;105965;1276;113347;-67
2022/09/29 09:25:00;;;;;;;;;;;;;;;11.09;69.76;97782.55;105960;1276;99243;-66
2022/09/29 09:27:39;;;;;;;14.40;4.80;;;;;;;11.10;69.85;97786.57;105877;1276;108245;-65
2022/09/29 09:30:17;;;;;;;14.10;5.30;;;;;;;11.12;69.80;97785.46;105898;1276;99234;-65
2022/09/29 09:33:01;;;;;;;15.70;5.80;;;;;;;11.13;69.74;97788.55;105890;1276;99257;-65
2022/09/29 09:35:34;;;;;;;16.90;5.40;;;;;;;11.15;69.89;97791.14;105964;1276;112591;-65
2022/09/29 09:38:13;;;;;;;12.20;5.40;;;;;;;11.20;69.92;97789.73;105902;1277;99380;-66
2022/09/29 09:40:45;;;;;;;11.90;5.00;;;;;;;11.23;69.95;97789.23;105975;1276;108762;-66
2022/09/29 09:43:22;;;;;;;15.00;5.50;;;;;;;11.24;69.95;97792.51;105955;1276;99254;-65
2022/09/29 09:46:03;;;;;;;10.50;5.50;;;;;;;11.23;70.02;97792.73;105991;1276;96563;-66
2022/09/29 09:48:40;;;;;;;12.70;5.40;;;;;;;11.24;69.92;97790.20;105741;1276;112737;-66
2022/09/29 09:51:30;;;;;;;12.40;5.80;;;;;;;11.26;70.07;97791.58;107450;1276;99215;-65
2022/09/29 09:54:08;;;;;;;14.90;5.90;;;;;;;11.30;70.09;97792.98;105910;1276;107753;-65
2022/09/29 09:57:29;;;;;;;10.80;4.60;;;;;;;11.33;70.04;97788.62;106796;1276;99208;-67
2022/09/29 10:00:13;;;;;;;16.90;6.10;;;;;;;11.37;70.13;97795.14;105697;1276;99302;-66
2022/09/29 10:02:48;;;;;;;13.50;6.00;;;;;;;11.41;70.19;97797.23;105823;1276;113252;-66
2022/09/29 10:05:21;;;;;;;22.00;10.30;;;;;;;11.44;70.07;97795.34;105993;1276;99381;-64
2022/09/29 10:07:51;;;;;;;14.50;5.40;;;;;;;11.49;70.21;97797.95;105976;1276;106500;-67
2022/09/29 10:10:26;;;;;;;9.60;4.70;;;;;;;11.50;70.20;97798.31;105999;1276;99236;-64
2022/09/29 10:13:09;;;;;;;8.10;4.20;;;;;;;11.52;70.12;97800.26;105950;1276;99308;-67
2022/09/29 10:15:44;;;;;;;7.40;3.40;;;;;;;11.54;70.21;97801.55;105868;1276;113688;-66
2022/09/29 10:18:28;;;;;;;7.40;3.40;;;;;;;11.53;70.11;97806.40;105846;1276;99301;-65
2022/09/29 10:20:57;;;;;;;9.10;3.60;;;;;;;11.54;70.25;97802.25;105885;1276;108544;-66
2022/09/29 10:23:28;;;;;;;9.10;3.50;;;;;;;11.55;70.29;97801.97;105980;1276;99217;-65
2022/09/29 10:26:02;;;;;;;6.70;3.60;;;;;;;11.56;70.17;97800.46;105914;1276;99205;-67
2022/09/29 10:28:42;;;;;;;10.10;4.10;;;;;;;11.57;70.27;97799.59;105835;1276;113655;-66
2022/09/29 10:31:20;;;;;;;9.50;3.70;;;;;;;11.60;70.17;97801.77;105890;1276;98357;-66
2022/09/29 10:34:12;;;;;;;10.80;4.20;;;;;;;11.64;70.37;97801.14;105830;1276;108174;-65
2022/09/29 10:36:55;;;;;;;10.60;4.30;;;;;;;11.67;70.43;97799.69;105793;1276;99371;-66
2022/09/29 10:39:41;;;;;;;10.60;4.30;;;;;;;11.71;70.51;97801.84;105855;1276;99084;-66
2022/09/29 10:42:21;;;;;;;8.60;3.60;;;;;;;11.74;70.46;97806.86;105831;1276;113195;-67
2022/09/29 10:44:52;;;;;;;8.70;3.90;;;;;;;11.75;70.39;97804.61;105892;1276;96882;-67
2022/09/29 10:47:22;;;;;;;7.20;3.80;;;;;;;11.76;70.46;97805.26;105912;1276;107915;-65
2022/09/29 10:50:07;;;;;;;8.20;4.00;;;;;;;11.78;70.41;97803.67;105867;1276;99346;-66
2022/09/29 10:52:36;;;;;;;8.30;3.80;;;;;;;11.81;70.44;97810.98;105907;1275;99214;-65
2022/09/29 10:55:14;;;;;;;7.60;3.60;;;;;;;11.83;70.56;97807.73;105930;1276;112719;-66
2022/09/29 10:57:45;;;;;;;8.20;4.10;;;;;;;11.86;70.57;97810.48;105925;1276;99364;-66
2022/09/29 11:00:36;;;;;;;7.70;3.90;;;;;;;11.88;70.56;97809.95;105950;1276;107885;-67
2022/09/29 11:03:37;;;;;;;8.40;3.70;;;;;;;11.89;70.55;97810.18;105874;1276;99267;-65
2022/09/29 11:06:11;;;;;;;9.60;3.80;;;;;;;11.90;70.55;97808.69;105774;1276;99301;-67
2022/09/29 11:09:01;;;;;;;11.40;3.60;;;;;;;11.90;70.62;97809.95;105865;1276;112928;-67
2022/09/29 11:11:55;;;;;;;9.40;3.70;;;;;;;11.92;70.67;97810.46;106014;1276;99377;-67
2022/09/29 11:14:34;;;;;;;9.50;4.30;;;;;;;11.91;70.62;97817.29;105934;1276;108296;-66
2022/09/29 11:17:21;;;;;;;8.80;3.80;;;;;;;11.92;70.63;97815.83;105940;1276;99323;-66
2022/09/29 11:20:13;;;;;;;9.20;4.00;;;;;;;11.92;70.71;97816.88;105993;1276;99278;-66
2022/09/29 11:23:27;;;;;;;10.10;3.90;;;;;;;11.92;70.71;97818.79;105928;1276;112595;-67
2022/09/29 11:26:14;;;;;;;6.80;3.40;;;;;;;11.95;70.72;97819.30;105745;1276;99446;-68
2022/09/29 11:29:16;;;;;;;9.40;3.90;;;;;;;11.97;70.76;97820.08;105952;1276;108432;-67
2022/09/29 11:32:00;;;;;;;8.20;3.70;;;;;;;11.98;70.77;97820.00;105960;1276;99238;-66
2022/09/29 11:34:45;;;;;;;8.10;4.30;;;;;;;11.98;70.73;97820.57;105926;1276;99358;-67
2022/09/29 11:37:27;;;;;;;11.40;4.00;;;;;;;11.98;70.84;97825.70;105643;1276;112473;-67
2022/09/29 11:40:08;;;;;;;10.30;4.10;;;;;;;11.99;70.78;97820.96;105710;1276;99251;-65
2022/09/29 11:43:20;;;;;;;8.40;4.40;;;;;;;12.00;70.72;97818.79;105853;1276;107691;-65
2022/09/29 11:45:51;;;;;;;10.70;3.90;;;;;;;12.00;70.73;97820.04;105744;1277;99323;-67
2022/09/29 11:48:35;;;;;;;9.70;4.00;;;;;;;12.00;70.76;97822.89;105898;1276;99204;-67
2022/09/29 11:51:20;;;;;;;7.80;3.90;;;;;;;12.01;70.77;97817.83;105902;1276;113394;-67
2022/09/29 11:54:31;;;;;;;8.00;4.30;;;;;;;12.02;70.78;97815.34;106056;1276;96617;-65
2022/09/29 11:57:09;;;;;;;10.50;4.30;;;;;;;12.05;70.89;97807.93;105381;1276;108421;-67
2022/09/29 11:59:49;;;;;;;10.00;3.90;;;;;;;12.09;71.00;97807.23;105893;1276;99218;-66
2022/09/29 12:02:40;;;;;;;10.80;4.60;;;;;;;12.12;71.01;97805.48;105946;1276;99333;-66
2022/09/29 12:05:48;;;;;;;13.80;4.70;;;;;;;12.17;71.10;97808.77;105978;1276;111835;-67